Terminal Aerodrome Forecast
Issued by NWS Charleston, WV

Current Version | Previous Version | Graphics & Text | Print | Product List | Glossary Off
Versions: 1 2 3 4 5 6 7 8 9 10 11 12 13 14 15 16 17 18 19 20 21 22 23 24 25

000
FTUS41 KRLX 181700
TAFCRW
TAF
KCRW 181732Z 1818/1918 07008KT P6SM SCT050 SCT300
     FM190600 09004KT P6SM BKN250
     FM191300 11009G16KT P6SM OVC120
     FM191500 12013G23KT P6SM OVC070
     FM191600 12013G23KT 6SM -SHRA OVC050=

USA.gov is the U.S. government's official web portal to all federal, state and local government web resources and services.